createdAt,value
2018-05-27T00:02:51.393Z,15.50
2018-05-27T00:08:19.549Z,12.93
2018-05-27T00:13:48.459Z,11.87
2018-05-27T00:19:16.649Z,11.43
2018-05-27T00:24:45.844Z,11.40
2018-05-27T00:30:14.823Z,12.10
2018-05-27T00:35:43.016Z,11.07
2018-05-27T00:41:11.958Z,10.47
2018-05-27T00:46:40.138Z,10.57
2018-05-27T00:52:08.408Z,11.20
2018-05-27T00:57:36.664Z,10.90
2018-05-27T01:03:04.829Z,9.70
2018-05-27T01:08:33.754Z,9.87
2018-05-27T01:14:01.906Z,9.40
2018-05-27T01:19:30.048Z,8.53
2018-05-27T01:24:58.213Z,9.43
2018-05-27T01:30:26.356Z,8.10
2018-05-27T01:35:55.284Z,8.27
2018-05-27T01:41:24.201Z,8.30
2018-05-27T01:46:52.350Z,8.70
2018-05-27T01:52:21.263Z,9.10
2018-05-27T01:57:49.420Z,9.00
2018-05-27T02:03:18.546Z,9.40
2018-05-27T02:08:46.684Z,8.30
2018-05-27T02:14:14.836Z,7.77
2018-05-27T02:19:42.990Z,8.50
2018-05-27T02:25:12.149Z,8.13
2018-05-27T02:30:41.058Z,8.03
2018-05-27T02:36:09.230Z,8.67
2018-05-27T02:41:38.153Z,8.37
2018-05-27T02:47:06.320Z,8.50
2018-05-27T02:52:34.480Z,8.77
2018-05-27T02:58:03.390Z,8.90
2018-05-27T03:03:31.549Z,8.07
2018-05-27T03:08:59.684Z,8.50
2018-05-27T03:14:27.831Z,7.97
2018-05-27T03:19:55.979Z,9.90
2018-05-27T03:25:24.125Z,9.20
2018-05-27T03:30:52.260Z,9.50
2018-05-27T03:36:20.395Z,7.77
2018-05-27T03:41:48.562Z,7.80
2018-05-27T03:47:16.721Z,7.10
2018-05-27T03:52:44.854Z,6.70
2018-05-27T03:58:12.987Z,8.40
2018-05-27T04:03:41.166Z,8.43
2018-05-27T04:09:09.341Z,7.97
2018-05-27T04:14:38.265Z,7.97
2018-05-27T04:20:07.538Z,6.77
2018-05-27T04:25:37.135Z,7.50
2018-05-27T04:31:05.279Z,8.07
2018-05-27T04:36:33.484Z,6.50
2018-05-27T04:42:02.345Z,7.13
2018-05-27T04:47:30.488Z,6.73
2018-05-27T04:52:58.633Z,6.60
2018-05-27T04:58:26.775Z,6.80
2018-05-27T05:03:54.913Z,6.50
2018-05-27T05:09:23.111Z,6.23
2018-05-27T05:14:51.239Z,5.93
2018-05-27T05:20:19.362Z,6.10
2018-05-27T05:25:47.523Z,6.33
2018-05-27T05:31:15.665Z,6.10
2018-05-27T05:36:43.816Z,6.97
2018-05-27T05:42:11.999Z,6.47
2018-05-27T05:47:40.924Z,5.57
2018-05-27T05:53:09.937Z,5.37
2018-05-27T05:58:38.125Z,5.70
2018-05-27T06:04:06.989Z,6.03
2018-05-27T06:09:35.168Z,5.77
2018-05-27T06:15:04.081Z,5.27
2018-05-27T06:20:33.123Z,5.20
2018-05-27T06:26:01.275Z,4.97
2018-05-27T06:31:30.195Z,5.53
2018-05-27T06:36:58.344Z,6.17
2018-05-27T06:42:27.455Z,5.30
2018-05-27T06:47:55.608Z,5.50
2018-05-27T06:53:23.745Z,5.27
2018-05-27T06:58:51.866Z,5.10
2018-05-27T07:04:20.094Z,4.70
2018-05-27T07:09:48.205Z,5.13
2018-05-27T07:15:16.341Z,5.13
2018-05-27T07:20:44.517Z,4.67
2018-05-27T07:26:12.705Z,4.87
2018-05-27T07:31:40.881Z,4.87
2018-05-27T07:37:09.128Z,4.33
2018-05-27T07:42:37.490Z,5.27
2018-05-27T07:48:06.402Z,4.40
2018-05-27T07:53:34.544Z,6.33
2018-05-27T07:59:03.457Z,5.53
2018-05-27T08:04:31.607Z,5.20
2018-05-27T08:09:59.767Z,4.70
2018-05-27T08:15:27.938Z,5.30
2018-05-27T08:20:57.797Z,5.07
2018-05-27T08:26:25.981Z,5.40
2018-05-27T08:31:54.128Z,4.63
2018-05-27T08:37:22.269Z,5.20
2018-05-27T08:42:51.189Z,6.17
2018-05-27T08:48:19.324Z,5.13
2018-05-27T08:53:48.231Z,5.60
2018-05-27T08:59:16.368Z,6.17
2018-05-27T09:04:45.303Z,6.40
2018-05-27T09:10:14.231Z,6.60
2018-05-27T09:15:42.411Z,5.30
2018-05-27T09:21:10.613Z,5.77
2018-05-27T09:26:38.756Z,5.13
2018-05-27T09:32:06.930Z,6.20
2018-05-27T09:37:35.847Z,6.10
2018-05-27T09:43:04.764Z,5.67
2018-05-27T09:48:32.912Z,5.60
2018-05-27T09:54:01.833Z,5.50
2018-05-27T09:59:29.982Z,5.43
2018-05-27T10:04:58.887Z,5.60
2018-05-27T10:10:27.046Z,5.93
2018-05-27T10:15:55.210Z,5.50
2018-05-27T10:21:23.380Z,5.37
2018-05-27T10:26:52.280Z,5.40
2018-05-27T10:32:20.437Z,5.20
2018-05-27T10:37:49.456Z,4.10
2018-05-27T10:43:17.640Z,4.27
2018-05-27T10:48:45.806Z,4.97
2018-05-27T10:54:14.735Z,4.13
2018-05-27T10:59:43.744Z,3.43
2018-05-27T11:05:11.878Z,4.10
2018-05-27T11:10:40.029Z,3.87
2018-05-27T11:16:08.925Z,3.13
2018-05-27T11:21:37.085Z,2.13
2018-05-27T11:27:06.033Z,2.73
2018-05-27T11:32:34.189Z,3.80
2018-05-27T11:38:02.354Z,3.70
2018-05-27T11:43:31.278Z,4.43
2018-05-27T11:48:59.420Z,3.60
2018-05-27T11:54:28.349Z,3.50
2018-05-27T11:59:56.485Z,4.70
2018-05-27T12:05:24.650Z,5.20
2018-05-27T12:10:52.851Z,4.90
2018-05-27T12:16:21.962Z,4.60
2018-05-27T12:21:50.872Z,4.63
2018-05-27T12:27:20.969Z,4.70
2018-05-27T12:32:49.130Z,4.07
2018-05-27T12:38:17.256Z,4.23
2018-05-27T12:43:45.408Z,3.90
2018-05-27T12:49:14.501Z,4.10
2018-05-27T12:54:42.675Z,4.20
2018-05-27T13:00:11.685Z,4.00
2018-05-27T13:05:39.885Z,3.57
2018-05-27T13:11:08.284Z,3.70
2018-05-27T13:16:38.640Z,3.50
2018-05-27T13:22:07.586Z,3.13
2018-05-27T13:27:35.873Z,3.63
2018-05-27T13:33:04.007Z,3.40
2018-05-27T13:38:32.951Z,3.10
2018-05-27T13:44:01.872Z,3.13
2018-05-27T13:49:30.015Z,2.90
2018-05-27T13:54:58.970Z,2.97
2018-05-27T14:00:27.116Z,2.67
2018-05-27T14:05:55.304Z,2.93
2018-05-27T14:11:23.466Z,2.97
2018-05-27T14:16:51.623Z,2.37
2018-05-27T14:22:20.528Z,2.40
2018-05-27T14:27:48.687Z,2.40
2018-05-27T14:33:17.686Z,2.50
2018-05-27T14:38:51.710Z,2.30
2018-05-27T14:44:21.391Z,2.00
2018-05-27T14:49:49.581Z,2.47
2018-05-27T14:55:18.696Z,4.10
2018-05-27T15:00:46.832Z,2.50
2018-05-27T15:06:14.994Z,2.80
2018-05-27T15:11:43.181Z,2.63
2018-05-27T15:17:11.337Z,3.40
2018-05-27T15:22:39.532Z,2.93
2018-05-27T15:28:07.730Z,4.10
2018-05-27T15:33:36.246Z,2.93
2018-05-27T15:39:06.087Z,3.03
2018-05-27T15:44:34.232Z,3.57
2018-05-27T15:50:03.173Z,3.30
2018-05-27T15:55:32.079Z,3.47
2018-05-27T16:01:00.273Z,3.20
2018-05-27T16:06:28.449Z,3.10
2018-05-27T16:11:57.359Z,3.47
2018-05-27T16:17:25.507Z,3.17
2018-05-27T16:22:55.429Z,3.77
2018-05-27T16:28:24.528Z,4.37
2018-05-27T16:33:52.780Z,4.03
2018-05-27T16:39:20.988Z,3.70
2018-05-27T16:44:49.160Z,4.60
2018-05-27T16:50:18.149Z,5.60
2018-05-27T16:55:46.420Z,3.30
2018-05-27T17:01:14.588Z,3.40
2018-05-27T17:06:42.757Z,3.37
2018-05-27T17:12:11.913Z,3.03
2018-05-27T17:17:40.094Z,3.17
2018-05-27T17:23:08.260Z,2.67
2018-05-27T17:28:37.205Z,3.23
2018-05-27T17:34:06.179Z,3.70
2018-05-27T17:39:34.308Z,3.33
2018-05-27T17:45:02.464Z,4.17
2018-05-27T17:50:31.460Z,6.20
2018-05-27T17:55:59.613Z,3.10
2018-05-27T18:01:27.755Z,3.60
2018-05-27T18:06:56.678Z,3.50
2018-05-27T18:12:24.809Z,3.10
2018-05-27T18:17:53.712Z,3.50
2018-05-27T18:23:21.860Z,3.37
2018-05-27T18:28:50.767Z,3.10
2018-05-27T18:34:18.909Z,3.80
2018-05-27T18:39:47.829Z,3.50
2018-05-27T18:45:16.279Z,3.50
2018-05-27T18:50:45.298Z,3.57
2018-05-27T18:56:13.519Z,3.73
2018-05-27T19:01:41.767Z,4.03
2018-05-27T19:07:10.711Z,3.80
2018-05-27T19:12:39.799Z,4.13
2018-05-27T19:18:07.986Z,4.93
2018-05-27T19:23:36.188Z,5.83
2018-05-27T19:29:04.347Z,4.57
2018-05-27T19:34:34.425Z,5.13
2018-05-27T19:40:02.572Z,4.93
2018-05-27T19:45:30.721Z,6.20
2018-05-27T19:50:58.974Z,4.80
2018-05-27T19:56:27.190Z,5.13
2018-05-27T20:01:56.387Z,5.17
2018-05-27T20:07:25.286Z,4.70
2018-05-27T20:12:54.395Z,4.97
2018-05-27T20:18:23.547Z,5.27
2018-05-27T20:23:51.790Z,5.10
2018-05-27T20:29:20.035Z,5.97
2018-05-27T20:34:49.180Z,5.27
2018-05-27T20:40:17.423Z,6.47
2018-05-27T20:45:46.390Z,6.13
2018-05-27T20:51:14.772Z,6.13
2018-05-27T20:56:43.058Z,6.57
2018-05-27T21:02:11.993Z,6.77
2018-05-27T21:07:40.194Z,7.23
2018-05-27T21:13:08.443Z,6.73
2018-05-27T21:18:36.741Z,8.60
2018-05-27T21:24:04.933Z,8.90
2018-05-27T21:29:33.870Z,8.33
2018-05-27T21:35:07.003Z,8.20
2018-05-27T21:40:36.158Z,7.03
2018-05-27T21:46:05.140Z,8.60
2018-05-27T21:51:33.994Z,8.50
2018-05-27T21:57:02.142Z,7.60
2018-05-27T22:02:30.301Z,7.50
2018-05-27T22:07:58.473Z,8.33
2018-05-27T22:13:26.627Z,8.00
2018-05-27T22:18:54.776Z,9.43
2018-05-27T22:24:22.948Z,8.00
2018-05-27T22:29:51.872Z,7.70
2018-05-27T22:35:20.013Z,7.83
2018-05-27T22:40:48.180Z,7.70
2018-05-27T22:46:16.341Z,8.30
2018-05-27T22:51:45.282Z,8.10
2018-05-27T22:57:14.225Z,8.83
2018-05-27T23:02:42.627Z,8.60
2018-05-27T23:08:10.809Z,8.53
2018-05-27T23:13:38.973Z,8.67
2018-05-27T23:19:07.891Z,8.83
2018-05-27T23:24:36.047Z,9.30
2018-05-27T23:30:04.963Z,7.90
2018-05-27T23:35:36.710Z,8.40
2018-05-27T23:41:04.855Z,8.67
2018-05-27T23:46:32.997Z,8.13
2018-05-27T23:52:01.149Z,8.30
2018-05-27T23:57:30.060Z,11.87
